Time;durP1;ratioP1;P1;durP2;ratioP2;P2;SDS_P1;SDS_P2;PMS_P1;PMS_P2;Temp;Humidity;BMP_temperature;BMP_pressure;BME280_temperature;BME280_humidity;BME280_pressure;Samples;Min_cycle;Max_cycle;Signal;HPM_P1;HPM_P2
2023/01/02 00:00:11;;;;;;;;;4.00;4.00;;;;;15.00;66.53;100474.47;5137485;27;45532;-62
2023/01/02 00:02:36;;;;;;;;;4.00;4.00;;;;;15.01;66.23;100461.09;5138120;27;45467;-62
2023/01/02 00:05:01;;;;;;;;;4.67;4.67;;;;;15.01;66.73;100470.84;5137569;27;45473;-62
2023/01/02 00:07:27;;;;;;;;;5.00;5.00;;;;;14.99;66.44;100468.31;5137880;27;46447;-62
2023/01/02 00:09:52;;;;;;;;;4.33;4.33;;;;;14.99;66.00;100478.03;5137036;27;45431;-62
2023/01/02 00:12:17;;;;;;;;;4.33;4.33;;;;;15.01;66.80;100478.78;5136478;27;45564;-62
2023/01/02 00:14:42;;;;;;;;;4.00;4.00;;;;;14.97;66.55;100474.63;5136982;27;45610;-62
2023/01/02 00:17:08;;;;;;;;;4.33;4.33;;;;;14.95;67.40;100471.22;5137614;27;46346;-62
2023/01/02 00:19:33;;;;;;;;;4.67;4.67;;;;;14.93;67.55;100475.72;5119134;27;45430;-62
2023/01/02 00:21:58;;;;;;;;;3.67;3.67;;;;;14.94;67.15;100480.09;5137898;27;45547;-62
2023/01/02 00:24:24;;;;;;;;;4.67;4.33;;;;;14.97;67.59;100496.66;5134596;27;45519;-62
2023/01/02 00:26:49;;;;;;;;;6.67;5.67;;;;;14.94;66.97;100490.69;5136059;27;46022;-62
2023/01/02 00:29:14;;;;;;;;;6.00;4.33;;;;;14.96;67.12;100492.31;5137622;27;45365;-62
2023/01/02 00:31:40;;;;;;;;;4.33;4.33;;;;;14.92;67.17;100481.97;5137023;27;45749;-62
2023/01/02 00:34:05;;;;;;;;;4.67;3.00;;;;;14.89;68.18;100487.44;5137472;27;45415;-62
2023/01/02 00:36:30;;;;;;;;;4.00;4.00;;;;;14.89;68.00;100495.38;5118790;27;46154;-62
2023/01/02 00:38:56;;;;;;;;;3.00;3.00;;;;;14.83;68.44;100487.75;5136357;27;45403;-62
2023/01/02 00:41:22;;;;;;;;;4.67;4.67;;;;;14.87;68.89;100491.97;5130643;27;45499;-62
2023/01/02 00:43:48;;;;;;;;;3.00;3.00;;;;;14.81;68.59;100490.50;5115470;27;45477;-62
2023/01/02 00:46:14;;;;;;;;;4.00;3.00;;;;;14.79;69.35;100495.88;5136903;27;45556;-62
2023/01/02 00:48:40;;;;;;;;;3.33;1.33;;;;;14.78;68.85;100490.69;5137244;27;45459;-62
2023/01/02 00:51:06;;;;;;;;;2.33;2.33;;;;;14.71;68.96;100486.66;5137254;27;45566;-62
2023/01/02 00:53:31;;;;;;;;;3.33;3.33;;;;;14.71;69.42;100482.19;5136615;27;45625;-62
2023/01/02 00:55:57;;;;;;;;;3.00;3.00;;;;;14.73;69.45;100480.31;5136771;27;46150;-62
2023/01/02 00:58:22;;;;;;;;;3.67;3.67;;;;;14.76;68.89;100492.53;5137137;27;45500;-62
2023/01/02 01:00:49;;;;;;;;;3.33;3.00;;;;;14.77;69.92;100487.16;5137149;27;45576;-62
2023/01/02 01:03:14;;;;;;;;;4.33;3.00;;;;;14.74;69.54;100489.97;5136398;27;45442;-62
2023/01/02 01:05:40;;;;;;;;;2.33;2.33;;;;;14.71;69.78;100482.19;5136854;27;45451;-61
2023/01/02 01:08:05;;;;;;;;;4.00;4.00;;;;;14.68;70.29;100482.38;5134975;27;45679;-62
2023/01/02 01:10:31;;;;;;;;;4.67;4.67;;;;;14.69;70.44;100491.16;5137028;27;45542;-62
2023/01/02 01:12:56;;;;;;;;;4.00;4.00;;;;;14.68;70.42;100494.75;5136819;27;45684;-62
2023/01/02 01:15:21;;;;;;;;;4.33;4.33;;;;;14.67;70.81;100488.63;5136568;27;45448;-62
2023/01/02 01:17:47;;;;;;;;;4.00;3.00;;;;;14.69;70.44;100494.66;5136755;27;45447;-62
2023/01/02 01:20:12;;;;;;;;;2.67;2.67;;;;;14.67;70.61;100491.25;5134923;27;45420;-62
2023/01/02 01:22:37;;;;;;;;;3.00;3.00;;;;;14.60;70.94;100497.81;5128025;27;45454;-62
2023/01/02 01:25:03;;;;;;;;;4.00;4.00;;;;;14.64;70.63;100509.06;5136683;27;46309;-62
2023/01/02 01:27:29;;;;;;;;;3.33;3.00;;;;;14.62;70.86;100500.38;5136419;27;45405;-62
2023/01/02 01:29:54;;;;;;;;;5.00;4.00;;;;;14.64;71.40;100512.59;5136826;27;45433;-62
2023/01/02 01:32:19;;;;;;;;;3.00;3.00;;;;;14.64;71.13;100511.72;5136215;27;45531;-62
2023/01/02 01:34:45;;;;;;;;;3.33;3.33;;;;;14.63;71.45;100502.09;5134876;27;45651;-62
2023/01/02 01:37:11;;;;;;;;;3.00;3.00;;;;;14.63;71.30;100502.09;5136557;27;45522;-62
2023/01/02 01:39:36;;;;;;;;;3.00;3.00;;;;;14.54;71.80;100488.41;5136039;27;45452;-62
2023/01/02 01:42:02;;;;;;;;;2.67;2.67;;;;;14.60;71.97;100503.09;5134167;27;45514;-62
2023/01/02 01:44:47;;;;;;;;;2.00;2.00;;;;;14.56;71.19;100498.91;5136355;27;45469;-62
2023/01/02 01:47:48;;;;;;;;;6.00;2.00;;;;;14.54;72.22;100493.69;5136381;27;45481;-62
2023/01/02 01:50:35;;;;;;;;;2.33;2.33;;;;;14.49;71.43;100506.28;5136442;27;45496;-63
2023/01/02 01:53:04;;;;;;;;;3.33;3.33;;;;;14.46;71.39;100511.75;5136414;27;45564;-62
2023/01/02 01:55:33;;;;;;;;;5.00;2.00;;;;;14.44;72.45;100520.72;5135697;27;45534;-62
2023/01/02 01:58:06;;;;;;;;;3.00;3.00;;;;;14.45;72.06;100536.47;5136130;27;45547;-62
2023/01/02 02:00:32;;;;;;;;;3.67;2.67;;;;;14.43;72.63;100530.44;5135348;27;45335;-62
2023/01/02 02:03:10;;;;;;;;;5.00;2.00;;;;;14.40;72.38;100542.94;5135244;27;45576;-62
2023/01/02 02:05:36;;;;;;;;;1.33;1.33;;;;;14.43;72.00;100545.47;5123227;27;45712;-62
2023/01/02 02:08:40;;;;;;;;;3.33;3.33;;;;;14.44;72.90;100561.25;5135114;27;45478;-62
2023/01/02 02:11:05;;;;;;;;;2.67;2.67;;;;;14.41;72.45;100561.41;5126633;27;45515;-62
2023/01/02 02:13:32;;;;;;;;;2.33;2.33;;;;;14.44;72.78;100579.78;5117314;27;45616;-62
2023/01/02 02:16:16;;;;;;;;;2.00;2.00;;;;;14.45;72.03;100581.47;5138709;27;45397;-62
2023/01/02 02:19:00;;;;;;;;;3.33;2.00;;;;;14.41;72.83;100573.78;5136112;27;45395;-62
2023/01/02 02:21:44;;;;;;;;;2.67;2.67;;;;;14.42;73.31;100584.28;5124398;27;45402;-62
2023/01/02 02:24:15;;;;;;;;;1.00;1.00;;;;;14.41;72.78;100593.16;5125399;27;45634;-62
2023/01/02 02:26:57;;;;;;;;;2.00;2.00;;;;;14.41;72.62;100589.66;5133258;27;46485;-62
2023/01/02 02:29:58;;;;;;;;;1.33;1.00;;;;;14.39;73.41;100571.22;5125745;27;45506;-62
2023/01/02 02:33:01;;;;;;;;;1.00;1.00;;;;;14.40;73.34;100575.59;5139317;27;45557;-62
2023/01/02 02:36:08;;;;;;;;;1.00;1.00;;;;;14.38;72.85;100576.59;5139340;27;45495;-62
2023/01/02 02:38:36;;;;;;;;;1.67;1.67;;;;;14.36;73.10;100584.59;5066785;27;46610;-62
2023/01/02 02:41:40;;;;;;;;;1.00;1.00;;;;;14.33;73.67;100590.91;5136646;27;45483;-62
2023/01/02 02:44:18;;;;;;;;;1.00;1.00;;;;;14.33;74.16;100588.25;5135234;27;45525;-62
2023/01/02 02:46:58;;;;;;;;;2.33;1.67;;;;;14.34;73.80;100589.09;5138775;27;45446;-62
2023/01/02 02:49:42;;;;;;;;;2.00;2.00;;;;;14.35;74.42;100583.75;5138913;27;45487;-62
2023/01/02 02:52:33;;;;;;;;;1.67;1.67;;;;;14.33;73.60;100582.97;5139142;27;45540;-62
2023/01/02 02:55:13;;;;;;;;;1.33;1.33;;;;;14.32;74.15;100575.13;5115837;27;45610;-62
2023/01/02 02:57:42;;;;;;;;;2.00;2.00;;;;;14.34;74.19;100573.22;5116466;27;45562;-62
2023/01/02 03:00:12;;;;;;;;;1.00;1.00;;;;;14.36;74.37;100584.59;5120186;27;46103;-62
2023/01/02 03:02:37;;;;;;;;;1.00;1.00;;;;;14.35;74.60;100580.25;5139111;27;45456;-62
2023/01/02 03:05:08;;;;;;;;;0.67;0.67;;;;;14.34;74.34;100589.09;5139272;27;45431;-62
2023/01/02 03:08:07;;;;;;;;;1.00;1.00;;;;;14.29;74.97;100592.00;5138980;27;45452;-62
2023/01/02 03:10:48;;;;;;;;;2.67;2.00;;;;;14.28;74.19;100603.50;5125873;27;46283;-62
2023/01/02 03:13:26;;;;;;;;;1.00;1.00;;;;;14.29;73.96;100597.31;5129183;27;45554;-62
2023/01/02 03:16:04;;;;;;;;;1.33;1.00;;;;;14.21;74.12;100585.38;5125833;27;45573;-62
2023/01/02 03:18:48;;;;;;;;;1.00;0.00;;;;;14.19;73.92;100576.69;5138813;27;45533;-62
2023/01/02 03:21:18;;;;;;;;;0.67;0.67;;;;;14.13;74.83;100572.53;5128705;27;45590;-62
2023/01/02 03:23:45;;;;;;;;;0.33;0.00;;;;;14.19;74.25;100585.47;5124575;27;45495;-62
2023/01/02 03:26:24;;;;;;;;;0.00;0.00;;;;;14.19;74.75;100584.63;5137830;27;45831;-62
2023/01/02 03:29:07;;;;;;;;;0.00;0.00;;;;;14.16;73.56;100590.91;5135655;27;45532;-62
2023/01/02 03:31:38;;;;;;;;;1.00;1.00;;;;;14.12;72.70;100592.00;5129147;27;46149;-63
2023/01/02 03:34:08;;;;;;;;;0.00;0.00;;;;;14.04;73.17;100579.16;5138353;27;45466;-62
2023/01/02 03:36:38;;;;;;;;;0.00;0.00;;;;;14.06;72.80;100592.31;5132620;27;45537;-62
2023/01/02 03:39:03;;;;;;;;;0.00;0.00;;;;;14.10;72.28;100596.50;5136604;27;45491;-62
2023/01/02 03:41:37;;;;;;;;;0.33;0.00;;;;;14.06;72.14;100584.38;5126690;27;46284;-62
2023/01/02 03:44:06;;;;;;;;;0.00;0.00;;;;;14.04;71.72;100589.72;5137665;27;45443;-62
2023/01/02 03:46:43;;;;;;;;;0.00;0.00;;;;;14.05;71.60;100609.09;5128280;27;45430;-62
2023/01/02 03:49:18;;;;;;;;;2.00;0.00;;;;;14.03;71.29;100625.03;5137920;27;45635;-62
2023/01/02 03:51:43;;;;;;;;;0.00;0.00;;;;;13.99;71.34;100622.63;5119639;27;45626;-62
2023/01/02 03:54:10;;;;;;;;;0.00;0.00;;;;;14.03;71.16;100624.19;5120741;27;45513;-62
2023/01/02 03:56:58;;;;;;;;;0.00;0.00;;;;;14.03;71.99;100624.19;5117489;27;45443;-62
2023/01/02 03:59:32;;;;;;;;;0.00;0.00;;;;;14.05;71.04;100635.53;5135840;27;45514;-62
2023/01/02 04:02:03;;;;;;;;;0.00;0.00;;;;;14.00;71.19;100627.00;5138015;27;45489;-62
2023/01/02 04:05:00;;;;;;;;;0.00;0.00;;;;;13.97;71.41;100635.06;5137370;27;45453;-62
2023/01/02 04:07:33;;;;;;;;;0.00;0.00;;;;;13.96;71.81;100628.06;5078024;27;45742;-62
2023/01/02 04:10:00;;;;;;;;;0.00;0.00;;;;;13.94;72.05;100630.75;5135617;27;45460;-62
2023/01/02 04:12:29;;;;;;;;;0.00;0.00;;;;;13.98;71.30;100632.34;5136213;27;45471;-62
2023/01/02 04:15:06;;;;;;;;;0.00;0.00;;;;;13.95;71.90;100631.66;5136659;27;45508;-62
2023/01/02 04:17:37;;;;;;;;;0.00;0.00;;;;;13.92;71.36;100625.56;5135321;27;45497;-62
2023/01/02 04:20:15;;;;;;;;;0.00;0.00;;;;;13.95;71.20;100635.16;5130959;27;45632;-62
2023/01/02 04:22:49;;;;;;;;;0.00;0.00;;;;;13.86;71.51;100633.81;5137409;27;46283;-62
2023/01/02 04:25:16;;;;;;;;;0.00;0.00;;;;;13.87;71.83;100643.44;5137431;27;45493;-62
2023/01/02 04:27:54;;;;;;;;;0.00;0.00;;;;;13.90;71.83;100645.94;5128907;27;45563;-62
2023/01/02 04:30:19;;;;;;;;;0.00;0.00;;;;;13.88;71.91;100642.50;5137783;27;45514;-62
2023/01/02 04:32:46;;;;;;;;;0.00;0.00;;;;;13.92;71.64;100659.94;5117685;27;46921;-62
2023/01/02 04:35:19;;;;;;;;;0.00;0.00;;;;;13.90;72.61;100660.94;5137730;27;45598;-62
2023/01/02 04:37:45;;;;;;;;;0.00;0.00;;;;;13.90;71.89;100648.56;5134143;27;45526;-62
2023/01/02 04:40:17;;;;;;;;;0.00;0.00;;;;;13.88;72.21;100653.06;5118769;27;45509;-62
2023/01/02 04:42:42;;;;;;;;;2.33;0.00;;;;;13.92;72.55;100659.09;5133881;27;45550;-62
2023/01/02 04:45:08;;;;;;;;;0.00;0.00;;;;;13.92;72.49;100667.03;5125876;27;45506;-62
2023/01/02 04:47:34;;;;;;;;;0.00;0.00;;;;;13.91;72.49;100671.44;5136634;27;45490;-62
2023/01/02 04:49:59;;;;;;;;;0.00;0.00;;;;;13.77;72.17;100660.66;5136073;27;45643;-62
2023/01/02 04:52:24;;;;;;;;;0.00;0.00;;;;;13.87;72.56;100677.81;5137068;27;46241;-62
2023/01/02 04:54:49;;;;;;;;;0.00;0.00;;;;;13.86;72.65;100684.03;5127632;27;45525;-62
2023/01/02 04:57:15;;;;;;;;;0.00;0.00;;;;;13.88;72.10;100684.81;5130809;27;45510;-62
2023/01/02 04:59:40;;;;;;;;;0.00;0.00;;;;;13.82;72.43;100678.97;5136998;27;45429;-62
2023/01/02 05:02:05;;;;;;;;;0.00;0.00;;;;;13.81;72.10;100693.09;5129198;27;45446;-62
2023/01/02 05:04:31;;;;;;;;;0.00;0.00;;;;;13.83;72.88;100697.38;5135702;27;45522;-62
2023/01/02 05:06:56;;;;;;;;;0.00;0.00;;;;;13.81;72.67;100704.56;5137070;27;45523;-62
2023/01/02 05:09:21;;;;;;;;;0.00;0.00;;;;;13.83;72.16;100704.47;5136574;27;45549;-62
2023/01/02 05:11:46;;;;;;;;;0.00;0.00;;;;;13.73;71.99;100711.97;5121469;27;45524;-62
2023/01/02 05:14:12;;;;;;;;;0.00;0.00;;;;;13.74;72.82;100718.97;5136891;27;45495;-62
2023/01/02 05:16:37;;;;;;;;;0.00;0.00;;;;;13.73;72.62;100722.56;5137095;27;45456;-62
2023/01/02 05:19:02;;;;;;;;;0.00;0.00;;;;;13.71;72.29;100727.03;5126216;27;45426;-62
2023/01/02 05:24:12;;;;;;;;;0.00;0.00;;;;;13.72;72.09;100730.53;5134611;27;45558;-62
2023/01/02 05:26:37;;;;;;;;;0.00;0.00;;;;;13.72;71.72;100736.69;5134220;27;45569;-62
2023/01/02 05:29:02;;;;;;;;;0.00;0.00;;;;;13.67;71.92;100742.19;5134617;27;45447;-62
2023/01/02 05:31:28;;;;;;;;;0.00;0.00;;;;;13.71;71.65;100750.84;5132517;27;46664;-62
2023/01/02 05:33:55;;;;;;;;;0.00;0.00;;;;;13.72;72.09;100751.69;5132402;27;45441;-62
2023/01/02 05:36:22;;;;;;;;;0.00;0.00;;;;;13.74;72.05;100760.41;5134673;27;45423;-62
2023/01/02 05:38:48;;;;;;;;;0.00;0.00;;;;;13.72;71.78;100763.13;5133595;27;45550;-62
2023/01/02 05:41:14;;;;;;;;;0.00;0.00;;;;;13.66;71.59;100756.31;5134184;27;45511;-62
2023/01/02 05:43:39;;;;;;;;;0.00;0.00;;;;;13.74;71.78;100771.84;5133820;27;45570;-63
2023/01/02 05:46:22;;;;;;;;;0.00;0.00;;;;;13.72;71.67;100768.41;5134368;27;45497;-62
2023/01/02 05:48:48;;;;;;;;;0.00;0.00;;;;;13.72;71.54;100778.97;5117915;27;45743;-62
2023/01/02 05:51:15;;;;;;;;;0.00;0.00;;;;;13.76;71.78;100787.63;5135967;27;54747;-62
2023/01/02 05:53:41;;;;;;;;;0.00;0.00;;;;;13.77;71.67;100792.84;5137944;27;45610;-62
2023/01/02 05:56:15;;;;;;;;;0.00;0.00;;;;;13.77;72.04;100790.19;5130486;27;45543;-62
2023/01/02 05:58:43;;;;;;;;;0.00;0.00;;;;;13.75;71.87;100794.69;5137908;27;45463;-62
2023/01/02 06:01:12;;;;;;;;;0.00;0.00;;;;;13.65;72.35;100786.34;5138913;27;46500;-63
2023/01/02 06:03:37;;;;;;;;;0.00;0.00;;;;;13.69;72.26;100787.91;5125543;27;45488;-62
2023/01/02 06:06:08;;;;;;;;;0.00;0.00;;;;;13.69;71.87;100784.41;5134376;27;45584;-62
2023/01/02 06:08:35;;;;;;;;;0.00;0.00;;;;;13.70;72.17;100800.22;5139069;27;45425;-62
2023/01/02 06:11:01;;;;;;;;;0.00;0.00;;;;;13.69;71.97;100795.81;5139673;27;45656;-62
2023/01/02 06:13:28;;;;;;;;;0.00;0.00;;;;;13.63;72.00;100800.53;5131157;27;45518;-62
2023/01/02 06:15:55;;;;;;;;;0.00;0.00;;;;;13.63;72.10;100803.19;5137310;27;45501;-62
2023/01/02 06:18:21;;;;;;;;;0.00;0.00;;;;;13.54;72.01;100808.88;5138912;27;45418;-62
2023/01/02 06:20:46;;;;;;;;;0.00;0.00;;;;;13.42;72.38;100797.06;5138143;27;45947;-62
2023/01/02 06:23:12;;;;;;;;;0.00;0.00;;;;;13.50;72.71;100817.88;5102212;27;45903;-62
2023/01/02 06:25:37;;;;;;;;;0.00;0.00;;;;;13.52;72.41;100823.94;5138180;27;45512;-62
2023/01/02 06:28:02;;;;;;;;;0.00;0.00;;;;;13.49;72.49;100814.38;5130883;27;45616;-62
2023/01/02 06:30:28;;;;;;;;;0.00;0.00;;;;;13.58;71.41;100823.69;5135496;27;45510;-62
2023/01/02 06:32:55;;;;;;;;;0.00;0.00;;;;;13.56;72.10;100828.16;5133192;27;45543;-62
2023/01/02 06:35:21;;;;;;;;;0.00;0.00;;;;;13.46;72.16;100817.16;5137265;27;45493;-62
2023/01/02 06:37:46;;;;;;;;;0.00;0.00;;;;;13.47;72.29;100827.63;5131933;27;45488;-62
2023/01/02 06:40:11;;;;;;;;;0.00;0.00;;;;;13.48;72.17;100839.91;5137291;27;45524;-62
2023/01/02 06:42:37;;;;;;;;;0.00;0.00;;;;;13.38;72.26;100833.34;5138620;27;45558;-62
2023/01/02 06:45:03;;;;;;;;;0.00;0.00;;;;;13.48;72.00;100847.00;5137431;27;45555;-62
2023/01/02 06:47:29;;;;;;;;;0.00;0.00;;;;;13.41;71.95;100843.78;5138461;27;45358;-62
2023/01/02 06:49:54;;;;;;;;;0.00;0.00;;;;;13.41;71.88;100849.06;5138370;27;45588;-62
2023/01/02 06:52:20;;;;;;;;;0.00;0.00;;;;;13.33;71.97;100832.66;5138384;27;45465;-63
2023/01/02 06:54:46;;;;;;;;;0.00;0.00;;;;;13.44;72.16;100850.72;5138488;27;45574;-62
2023/01/02 06:57:11;;;;;;;;;0.00;0.00;;;;;13.39;72.54;100837.69;5129069;27;45597;-62
2023/01/02 06:59:36;;;;;;;;;0.00;0.00;;;;;13.42;72.37;100834.06;5132925;27;46616;-63
2023/01/02 07:02:02;;;;;;;;;0.00;0.00;;;;;13.42;72.19;100836.69;5136384;27;45471;-63
2023/01/02 07:04:27;;;;;;;;;0.00;0.00;;;;;13.41;71.96;100817.34;5138643;27;45480;-62
2023/01/02 07:06:52;;;;;;;;;0.00;0.00;;;;;13.38;71.69;100816.59;5133432;27;45802;-63
2023/01/02 07:09:18;;;;;;;;;0.00;0.00;;;;;13.41;72.22;100822.63;5135540;27;47978;-62
2023/01/02 07:11:43;;;;;;;;;0.00;0.00;;;;;13.40;72.22;100828.81;5137797;27;45444;-62
2023/01/02 07:14:08;;;;;;;;;0.00;0.00;;;;;13.24;71.81;100811.88;5136768;27;45567;-63
2023/01/02 07:16:34;;;;;;;;;0.00;0.00;;;;;13.38;71.85;100841.25;5119169;27;45517;-62
2023/01/02 07:18:59;;;;;;;;;0.00;0.00;;;;;13.38;71.96;100838.63;5137943;27;45555;-63
2023/01/02 07:21:24;;;;;;;;;0.00;0.00;;;;;13.37;71.79;100841.31;5123961;27;45562;-63
2023/01/02 07:23:50;;;;;;;;;0.00;0.00;;;;;13.44;71.77;100856.84;5130644;27;45519;-63
2023/01/02 07:26:15;;;;;;;;;0.00;0.00;;;;;13.44;71.90;100856.84;5127269;27;45460;-63
2023/01/02 07:28:41;;;;;;;;;0.00;0.00;;;;;13.41;71.21;100870.19;5125857;27;46099;-63
2023/01/02 07:31:11;;;;;;;;;0.00;0.00;;;;;13.41;71.50;100870.19;5128923;27;45494;-63
2023/01/02 07:33:36;;;;;;;;;0.00;0.00;;;;;13.38;71.52;100861.50;5132514;27;45453;-62
2023/01/02 07:36:05;;;;;;;;;0.00;0.00;;;;;13.42;71.45;100860.47;5134420;27;45403;-59
2023/01/02 07:38:31;;;;;;;;;0.00;0.00;;;;;13.39;71.56;100869.38;5126887;27;46426;-58
2023/01/02 07:40:56;;;;;;;;;1.00;0.00;;;;;13.37;71.61;100871.22;5137343;27;45494;-59
2023/01/02 07:43:22;;;;;;;;;0.00;0.00;;;;;13.38;71.70;100885.28;5118627;27;45488;-59
2023/01/02 07:45:48;;;;;;;;;0.00;0.00;;;;;13.32;71.74;100875.84;5127004;27;45424;-57
2023/01/02 07:48:14;;;;;;;;;2.33;0.00;;;;;13.38;71.66;100880.00;5137146;27;45503;-56
2023/01/02 07:50:39;;;;;;;;;0.00;0.00;;;;;13.38;71.60;100895.84;5137033;27;45429;-57
2023/01/02 07:53:05;;;;;;;;;0.00;0.00;;;;;13.35;71.62;100888.94;5137569;27;45494;-59
2023/01/02 07:55:30;;;;;;;;;0.00;0.00;;;;;13.36;71.73;100903.88;5118629;27;45476;-59
2023/01/02 07:57:55;;;;;;;;;0.00;0.00;;;;;13.37;71.49;100910.84;5136990;27;45508;-57
2023/01/02 08:00:21;;;;;;;;;0.00;0.00;;;;;13.30;71.43;100911.16;5137269;27;45567;-58
2023/01/02 08:02:48;;;;;;;;;0.00;0.00;;;;;13.30;71.03;100927.03;5136514;27;45843;-57
2023/01/02 08:05:15;;;;;;;;;0.00;0.00;;;;;13.33;71.54;100926.91;5135790;27;45637;-57
2023/01/02 08:07:40;;;;;;;;;1.00;0.00;;;;;13.34;71.37;100921.56;5135664;27;45597;-57
2023/01/02 08:10:05;;;;;;;;;3.00;0.33;;;;;13.32;71.72;100933.09;5135406;27;47479;-56
2023/01/02 08:12:31;;;;;;;;;0.00;0.00;;;;;13.32;71.43;100947.16;5135770;27;45468;-57
2023/01/02 08:14:56;;;;;;;;;0.33;0.33;;;;;13.31;71.16;100941.97;5137008;27;45497;-57
2023/01/02 08:17:21;;;;;;;;;0.00;0.00;;;;;13.33;71.22;100948.91;5136942;27;48357;-57
2023/01/02 08:19:46;;;;;;;;;0.00;0.00;;;;;13.32;70.95;100949.81;5117708;27;45493;-57
2023/01/02 08:22:12;;;;;;;;;0.67;0.33;;;;;13.33;71.16;100950.69;5137169;27;45491;-57
2023/01/02 08:24:37;;;;;;;;;0.00;0.00;;;;;13.25;71.22;100943.91;5137013;27;45478;-58
2023/01/02 08:27:02;;;;;;;;;0.00;0.00;;;;;13.26;71.37;100955.34;5136763;27;46142;-58
2023/01/02 08:29:28;;;;;;;;;0.67;0.00;;;;;13.30;71.31;100967.53;5136726;27;45411;-57
2023/01/02 08:31:53;;;;;;;;;0.00;0.00;;;;;13.23;71.13;100958.09;5136652;27;45413;-58
2023/01/02 08:34:19;;;;;;;;;1.33;0.00;;;;;13.31;70.52;100974.53;5136902;27;45407;-57
2023/01/02 08:36:44;;;;;;;;;0.00;0.00;;;;;13.27;70.75;100978.19;5135666;27;45511;-57
2023/01/02 08:39:10;;;;;;;;;0.00;0.00;;;;;13.25;70.72;100966.81;5134868;27;45540;-58
2023/01/02 08:41:39;;;;;;;;;1.00;1.00;;;;;13.29;70.35;100978.16;5136819;27;45515;-58
2023/01/02 08:44:05;;;;;;;;;0.00;0.00;;;;;13.29;70.62;100983.44;5136458;27;45707;-58
2023/01/02 08:46:32;;;;;;;;;1.00;0.00;;;;;13.28;70.39;100997.56;5136583;27;46118;-58
2023/01/02 08:48:58;;;;;;;;;0.00;0.00;;;;;13.20;70.02;100997.84;5121821;27;45622;-58
2023/01/02 08:51:23;;;;;;;;;0.00;0.00;;;;;13.21;69.74;101020.69;5136714;27;45480;-58
2023/01/02 08:53:49;;;;;;;;;0.00;0.00;;;;;13.19;69.61;101027.78;5136469;27;45459;-58
2023/01/02 08:56:21;;;;;;;;;1.00;1.00;;;;;13.19;69.68;101041.00;5136230;27;45609;-58
2023/01/02 08:58:57;;;;;;;;;0.00;0.00;;;;;13.17;69.73;101050.78;5136406;27;45487;-59
2023/01/02 09:01:24;;;;;;;;;0.00;0.00;;;;;13.16;69.61;101072.81;5136287;27;45521;-58
2023/01/02 09:03:50;;;;;;;;;0.00;0.00;;;;;13.02;69.49;101053.06;5136461;27;45505;-58
2023/01/02 09:06:15;;;;;;;;;0.00;0.00;;;;;13.15;69.66;101079.03;5136131;27;45560;-58
2023/01/02 09:08:40;;;;;;;;;0.00;0.00;;;;;13.14;69.72;101085.25;5116611;27;45430;-58
2023/01/02 09:11:15;;;;;;;;;0.00;0.00;;;;;13.11;69.58;101083.56;5117659;27;45696;-58
2023/01/02 09:13:41;;;;;;;;;2.33;1.00;;;;;13.13;69.75;101087.00;5135924;27;46029;-58
2023/01/02 09:16:07;;;;;;;;;0.00;0.00;;;;;13.14;70.25;101088.75;5136029;27;45503;-58
2023/01/02 09:18:33;;;;;;;;;0.00;0.00;;;;;13.10;69.80;101076.56;5135893;27;45440;-58
2023/01/02 09:20:58;;;;;;;;;0.00;0.00;;;;;13.08;69.92;101067.81;5136249;27;45520;-58
2023/01/02 09:23:23;;;;;;;;;0.00;0.00;;;;;13.03;69.88;101054.81;5135474;27;45488;-58
2023/01/02 09:25:49;;;;;;;;;0.00;0.00;;;;;13.00;69.96;101076.06;5135796;27;46456;-58
2023/01/02 09:28:14;;;;;;;;;0.00;0.00;;;;;13.01;70.46;101084.84;5116944;27;46128;-58
2023/01/02 09:30:39;;;;;;;;;0.33;0.33;;;;;12.97;70.30;101085.84;5135876;27;45630;-58
2023/01/02 09:33:05;;;;;;;;;0.00;0.00;;;;;13.01;70.22;101093.63;5135758;27;45443;-58
2023/01/02 09:35:33;;;;;;;;;0.00;0.00;;;;;13.02;70.76;101103.25;5114846;27;46370;-58
2023/01/02 09:37:58;;;;;;;;;2.67;1.00;;;;;13.01;70.20;101106.81;5114014;27;45409;-58
2023/01/02 09:40:24;;;;;;;;;0.00;0.00;;;;;13.03;70.78;101115.56;5112843;27;45532;-58
2023/01/02 09:42:50;;;;;;;;;1.00;1.00;;;;;13.01;70.68;101104.19;5115165;27;45717;-58
2023/01/02 09:45:16;;;;;;;;;0.00;0.00;;;;;13.01;70.52;101113.88;5115076;27;46800;-58
2023/01/02 09:47:45;;;;;;;;;0.00;0.00;;;;;12.97;70.41;101114.91;5114696;27;45494;-58
2023/01/02 09:50:17;;;;;;;;;0.00;0.00;;;;;13.00;70.37;101123.59;5114950;27;45523;-58
2023/01/02 09:52:47;;;;;;;;;2.00;1.00;;;;;12.97;71.08;101134.22;5114991;27;45464;-58
2023/01/02 09:55:14;;;;;;;;;0.00;0.00;;;;;12.96;71.24;101148.38;5114685;27;46352;-57
2023/01/02 09:57:53;;;;;;;;;14.00;13.00;;;;;12.91;70.95;101160.00;5114617;27;45453;-58
2023/01/02 10:00:21;;;;;;;;;0.33;0.33;;;;;12.94;71.34;101166.03;5113523;27;45476;-58
2023/01/02 10:03:17;;;;;;;;;1.00;1.00;;;;;12.93;71.13;101174.03;5114982;27;45440;-58
2023/01/02 10:06:00;;;;;;;;;1.00;1.00;;;;;12.93;70.69;101168.75;5103590;27;46495;-58
2023/01/02 10:08:34;;;;;;;;;2.00;0.00;;;;;12.94;71.43;101167.81;5113967;27;45473;-58
2023/01/02 10:11:18;;;;;;;;;0.00;0.00;;;;;12.91;71.45;101168.78;5114793;27;45560;-58
2023/01/02 10:13:57;;;;;;;;;0.00;0.00;;;;;12.85;71.72;101168.16;5114419;27;45640;-58
2023/01/02 10:16:30;;;;;;;;;1.00;1.00;;;;;12.82;71.48;101148.00;5114638;27;46950;-58
2023/01/02 10:18:59;;;;;;;;;1.00;1.00;;;;;12.86;72.21;101157.53;5114707;27;45397;-58
2023/01/02 10:21:29;;;;;;;;;1.00;1.00;;;;;12.89;72.10;101157.41;5113309;27;45624;-57
2023/01/02 10:24:19;;;;;;;;;0.00;0.00;;;;;12.90;71.44;101143.31;5114612;27;45634;-58
2023/01/02 10:26:52;;;;;;;;;0.67;0.67;;;;;12.96;71.67;101135.16;5114248;27;46181;-58
2023/01/02 10:29:38;;;;;;;;;0.00;0.00;;;;;12.91;71.25;101137.09;5114587;27;45479;-58
2023/01/02 10:32:11;;;;;;;;;1.00;0.00;;;;;12.94;71.58;101138.78;5112845;27;45473;-58
2023/01/02 10:34:46;;;;;;;;;1.00;1.00;;;;;13.00;71.33;101149.09;5114431;27;45576;-58
2023/01/02 10:37:14;;;;;;;;;0.00;0.00;;;;;13.04;71.14;101154.22;5116047;27;46661;-58
2023/01/02 10:39:42;;;;;;;;;1.33;1.33;;;;;13.03;71.62;101165.72;5117276;27;45589;-58
2023/01/02 10:42:12;;;;;;;;;1.00;1.00;;;;;12.98;71.31;101146.53;5116264;27;45469;-58
2023/01/02 10:44:38;;;;;;;;;2.00;2.00;;;;;13.01;71.26;101156.13;5105302;27;45602;-58
2023/01/02 10:47:13;;;;;;;;;1.00;1.00;;;;;13.08;71.37;101180.50;5117552;27;45381;-58
2023/01/02 10:49:40;;;;;;;;;2.00;2.00;;;;;13.03;71.01;101184.22;5104352;27;45534;-61
2023/01/02 10:52:17;;;;;;;;;1.00;1.00;;;;;13.04;71.37;101203.53;5118003;27;45589;-57
2023/01/02 10:54:54;;;;;;;;;1.33;1.33;;;;;13.08;71.62;101206.94;5117693;27;45539;-58
2023/01/02 10:57:32;;;;;;;;;0.67;0.67;;;;;13.10;71.40;101221.81;5117275;27;45427;-58
2023/01/02 11:00:00;;;;;;;;;0.33;0.33;;;;;13.12;70.76;101219.13;5117073;27;45501;-59
2023/01/02 11:02:52;;;;;;;;;1.00;1.00;;;;;13.13;70.86;101213.75;5117710;27;45471;-58
2023/01/02 11:05:21;;;;;;;;;1.00;1.00;;;;;13.16;70.74;101199.59;5117540;27;45512;-58
2023/01/02 11:07:49;;;;;;;;;4.00;2.00;;;;;13.16;70.58;101204.88;5117134;27;45534;-56
2023/01/02 11:10:30;;;;;;;;;1.00;1.00;;;;;13.15;70.54;101205.81;5116936;27;45567;-57
2023/01/02 11:13:01;;;;;;;;;6.00;4.67;;;;;13.18;70.88;101217.09;5116637;27;45501;-58
2023/01/02 11:15:34;;;;;;;;;4.00;4.00;;;;;13.16;70.61;101229.50;5117149;27;45448;-58
2023/01/02 11:18:09;;;;;;;;;4.00;3.33;;;;;13.12;70.46;101229.69;5116982;27;45553;-57
2023/01/02 11:20:36;;;;;;;;;1.00;1.00;;;;;13.13;70.61;101226.97;5117002;27;45460;-58
2023/01/02 11:23:03;;;;;;;;;1.67;1.00;;;;;13.13;70.83;101223.47;5117287;27;45502;-58
2023/01/02 11:25:40;;;;;;;;;1.00;1.00;;;;;13.20;70.46;101238.19;5117134;27;45449;-58
2023/01/02 11:28:18;;;;;;;;;3.00;2.67;;;;;13.14;69.80;101218.16;5117002;27;45926;-58
2023/01/02 11:30:50;;;;;;;;;0.33;0.33;;;;;13.01;69.84;101201.88;5116822;27;45461;-58
2023/01/02 11:33:30;;;;;;;;;2.00;2.00;;;;;13.11;70.29;101217.38;5116908;27;45474;-59
2023/01/02 11:36:01;;;;;;;;;5.33;5.33;;;;;13.14;70.01;101231.34;5116157;27;45452;-58
2023/01/02 11:38:48;;;;;;;;;2.67;2.67;;;;;13.15;69.89;101234.84;5117025;27;45525;-58